sensor_id;sensor_type;location;lat;lon;timestamp;pressure;altitude;pressure_sealevel;temperature;humidity
72024;BME280;59889;50.700;5.440;2023-10-08T00:00:14;100874.46;;;25.34;33.36
72024;BME280;59889;50.700;5.440;2023-10-08T00:02:39;100871.90;;;25.37;33.32
72024;BME280;59889;50.700;5.440;2023-10-08T00:05:06;100870.40;;;25.33;33.37
72024;BME280;59889;50.700;5.440;2023-10-08T00:07:31;100867.61;;;25.25;33.48
72024;BME280;59889;50.700;5.440;2023-10-08T00:09:57;100864.78;;;25.30;33.41
72024;BME280;59889;50.700;5.440;2023-10-08T00:12:23;100865.67;;;25.28;33.45
72024;BME280;59889;50.700;5.440;2023-10-08T00:14:49;100872.30;;;25.29;33.42
72024;BME280;59889;50.700;5.440;2023-10-08T00:17:15;100871.76;;;25.47;33.49
72024;BME280;59889;50.700;5.440;2023-10-08T00:19:40;100878.60;;;25.30;33.43
72024;BME280;59889;50.700;5.440;2023-10-08T00:22:06;100876.98;;;25.34;33.36
72024;BME280;59889;50.700;5.440;2023-10-08T00:24:32;100884.08;;;25.00;33.47
72024;BME280;59889;50.700;5.440;2023-10-08T00:26:58;100887.60;;;25.07;33.41
72024;BME280;59889;50.700;5.440;2023-10-08T00:29:24;100886.43;;;25.27;33.44
72024;BME280;59889;50.700;5.440;2023-10-08T00:31:50;100889.86;;;25.38;33.33
72024;BME280;59889;50.700;5.440;2023-10-08T00:34:15;100893.89;;;25.37;33.31
72024;BME280;59889;50.700;5.440;2023-10-08T00:36:43;100897.20;;;25.39;33.30
72024;BME280;59889;50.700;5.440;2023-10-08T00:39:08;100902.75;;;25.30;33.40
72024;BME280;59889;50.700;5.440;2023-10-08T00:41:33;100896.31;;;25.10;33.35
72024;BME280;59889;50.700;5.440;2023-10-08T00:43:59;100892.26;;;25.11;33.36
72024;BME280;59889;50.700;5.440;2023-10-08T00:46:25;100894.24;;;25.27;33.44
72024;BME280;59889;50.700;5.440;2023-10-08T00:48:52;100896.80;;;25.28;33.43
72024;BME280;59889;50.700;5.440;2023-10-08T00:51:16;100883.64;;;25.31;33.40
72024;BME280;59889;50.700;5.440;2023-10-08T00:53:42;100879.37;;;25.31;33.42
72024;BME280;59889;50.700;5.440;2023-10-08T00:56:08;100882.77;;;25.54;33.41
72024;BME280;59889;50.700;5.440;2023-10-08T00:58:34;100882.51;;;25.28;33.44
72024;BME280;59889;50.700;5.440;2023-10-08T01:01:00;100877.56;;;25.29;33.42
72024;BME280;59889;50.700;5.440;2023-10-08T01:03:26;100875.46;;;25.28;33.42
72024;BME280;59889;50.700;5.440;2023-10-08T01:05:51;100878.27;;;25.19;33.51
72024;BME280;59889;50.700;5.440;2023-10-08T01:08:17;100870.02;;;25.01;33.46
72024;BME280;59889;50.700;5.440;2023-10-08T01:10:43;100867.31;;;25.18;33.55
72024;BME280;59889;50.700;5.440;2023-10-08T01:13:09;100870.13;;;25.72;33.47
72024;BME280;59889;50.700;5.440;2023-10-08T01:15:35;100878.09;;;25.26;33.46
72024;BME280;59889;50.700;5.440;2023-10-08T01:18:01;100879.84;;;25.28;33.43
72024;BME280;59889;50.700;5.440;2023-10-08T01:20:27;100880.46;;;24.95;33.54
72024;BME280;59889;50.700;5.440;2023-10-08T01:22:52;100888.28;;;24.92;33.58
72024;BME280;59889;50.700;5.440;2023-10-08T01:25:18;100886.69;;;25.32;33.67
72024;BME280;59889;50.700;5.440;2023-10-08T01:27:44;100896.96;;;25.05;33.73
72024;BME280;59889;50.700;5.440;2023-10-08T01:30:11;100895.26;;;25.16;33.58
72024;BME280;59889;50.700;5.440;2023-10-08T01:32:36;100897.22;;;25.19;33.54
72024;BME280;59889;50.700;5.440;2023-10-08T01:35:02;100895.06;;;25.19;33.55
72024;BME280;59889;50.700;5.440;2023-10-08T01:37:28;100895.98;;;24.74;33.52
72024;BME280;59889;50.700;5.440;2023-10-08T01:39:53;100896.74;;;25.23;33.51
72024;BME280;59889;50.700;5.440;2023-10-08T01:42:19;100898.11;;;25.10;33.64
72024;BME280;59889;50.700;5.440;2023-10-08T01:44:46;100891.30;;;25.15;33.60
72024;BME280;59889;50.700;5.440;2023-10-08T01:47:11;100896.28;;;25.22;33.50
72024;BME280;59889;50.700;5.440;2023-10-08T01:49:37;100899.26;;;25.25;33.49
72024;BME280;59889;50.700;5.440;2023-10-08T01:52:03;100895.22;;;25.22;33.52
72024;BME280;59889;50.700;5.440;2023-10-08T01:54:29;100891.29;;;25.18;33.54
72024;BME280;59889;50.700;5.440;2023-10-08T01:56:54;100881.23;;;25.46;33.51
72024;BME280;59889;50.700;5.440;2023-10-08T01:59:20;100891.75;;;25.17;33.56
72024;BME280;59889;50.700;5.440;2023-10-08T02:01:46;100892.55;;;25.13;33.61
72024;BME280;59889;50.700;5.440;2023-10-08T02:04:12;100895.33;;;25.19;33.54
72024;BME280;59889;50.700;5.440;2023-10-08T02:06:38;100890.89;;;25.14;33.60
72024;BME280;59889;50.700;5.440;2023-10-08T02:09:04;100883.96;;;25.13;33.61
72024;BME280;59889;50.700;5.440;2023-10-08T02:11:29;100874.59;;;25.15;33.57
72024;BME280;59889;50.700;5.440;2023-10-08T02:13:55;100873.97;;;25.18;33.54
72024;BME280;59889;50.700;5.440;2023-10-08T02:16:21;100875.50;;;25.23;33.49
72024;BME280;59889;50.700;5.440;2023-10-08T02:18:47;100872.54;;;25.10;33.67
72024;BME280;59889;50.700;5.440;2023-10-08T02:21:13;100867.86;;;25.16;33.57
72024;BME280;59889;50.700;5.440;2023-10-08T02:23:39;100854.16;;;25.16;33.56
72024;BME280;59889;50.700;5.440;2023-10-08T02:26:04;100855.02;;;25.13;33.61
72024;BME280;59889;50.700;5.440;2023-10-08T02:28:30;100858.81;;;25.17;33.57
72024;BME280;59889;50.700;5.440;2023-10-08T02:30:56;100859.69;;;25.09;33.63
72024;BME280;59889;50.700;5.440;2023-10-08T02:33:22;100855.62;;;25.37;33.61
72024;BME280;59889;50.700;5.440;2023-10-08T02:35:48;100860.47;;;25.06;33.70
72024;BME280;59889;50.700;5.440;2023-10-08T02:38:16;100859.27;;;24.94;33.54
72024;BME280;59889;50.700;5.440;2023-10-08T02:40:40;100856.52;;;25.41;33.54
72024;BME280;59889;50.700;5.440;2023-10-08T02:43:05;100854.71;;;25.10;33.62
72024;BME280;59889;50.700;5.440;2023-10-08T02:45:31;100858.70;;;25.08;33.66
72024;BME280;59889;50.700;5.440;2023-10-08T02:47:57;100860.77;;;25.13;33.60
72024;BME280;59889;50.700;5.440;2023-10-08T02:50:23;100863.55;;;25.11;33.61
72024;BME280;59889;50.700;5.440;2023-10-08T02:52:49;100861.59;;;25.39;33.57
72024;BME280;59889;50.700;5.440;2023-10-08T02:55:15;100866.08;;;25.25;33.74
72024;BME280;59889;50.700;5.440;2023-10-08T02:57:41;100865.06;;;25.02;33.76
72024;BME280;59889;50.700;5.440;2023-10-08T03:00:08;100867.51;;;25.27;33.72
72024;BME280;59889;50.700;5.440;2023-10-08T03:02:35;100871.45;;;25.06;33.71
72024;BME280;59889;50.700;5.440;2023-10-08T03:04:58;100869.26;;;24.96;33.81
72024;BME280;59889;50.700;5.440;2023-10-08T03:07:24;100873.40;;;25.06;33.68
72024;BME280;59889;50.700;5.440;2023-10-08T03:09:51;100876.65;;;25.33;33.64
72024;BME280;59889;50.700;5.440;2023-10-08T03:12:16;100878.20;;;25.15;33.58
72024;BME280;59889;50.700;5.440;2023-10-08T03:14:42;100880.43;;;25.13;33.60
72024;BME280;59889;50.700;5.440;2023-10-08T03:17:07;100877.37;;;25.33;33.64
72024;BME280;59889;50.700;5.440;2023-10-08T03:19:33;100874.31;;;25.02;33.74
72024;BME280;59889;50.700;5.440;2023-10-08T03:21:59;100873.42;;;25.60;33.60
72024;BME280;59889;50.700;5.440;2023-10-08T03:24:25;100870.20;;;25.06;33.70
72024;BME280;59889;50.700;5.440;2023-10-08T03:26:51;100860.72;;;25.17;33.55
72024;BME280;59889;50.700;5.440;2023-10-08T03:29:17;100860.39;;;25.13;33.60
72024;BME280;59889;50.700;5.440;2023-10-08T03:31:42;100868.10;;;25.06;33.67
72024;BME280;59889;50.700;5.440;2023-10-08T03:34:08;100874.54;;;25.11;33.62
72024;BME280;59889;50.700;5.440;2023-10-08T03:36:34;100882.06;;;25.31;33.67
72024;BME280;59889;50.700;5.440;2023-10-08T03:39:00;100883.11;;;25.34;33.62
72024;BME280;59889;50.700;5.440;2023-10-08T03:41:26;100887.00;;;25.07;33.65
72024;BME280;59889;50.700;5.440;2023-10-08T03:43:52;100890.71;;;25.09;33.64
72024;BME280;59889;50.700;5.440;2023-10-08T03:46:18;100894.92;;;25.05;33.70
72024;BME280;59889;50.700;5.440;2023-10-08T03:48:43;100896.63;;;25.07;33.68
72024;BME280;59889;50.700;5.440;2023-10-08T03:51:09;100899.06;;;25.02;33.74
72024;BME280;59889;50.700;5.440;2023-10-08T03:53:35;100901.26;;;25.11;33.62
72024;BME280;59889;50.700;5.440;2023-10-08T03:56:01;100899.70;;;25.27;33.71
72024;BME280;59889;50.700;5.440;2023-10-08T03:58:27;100894.83;;;25.02;33.72
72024;BME280;59889;50.700;5.440;2023-10-08T04:00:53;100896.34;;;25.04;33.71
72024;BME280;59889;50.700;5.440;2023-10-08T04:03:18;100896.57;;;25.06;33.69
72024;BME280;59889;50.700;5.440;2023-10-08T04:05:44;100892.99;;;25.39;33.58
72024;BME280;59889;50.700;5.440;2023-10-08T04:08:10;100892.30;;;25.57;33.65
72024;BME280;59889;50.700;5.440;2023-10-08T04:10:36;100885.85;;;25.03;33.72
72024;BME280;59889;50.700;5.440;2023-10-08T04:13:02;100886.37;;;25.06;33.66
72024;BME280;59889;50.700;5.440;2023-10-08T04:15:28;100885.93;;;24.72;33.79
72024;BME280;59889;50.700;5.440;2023-10-08T04:17:54;100885.65;;;25.06;33.66
72024;BME280;59889;50.700;5.440;2023-10-08T04:20:19;100891.22;;;25.11;33.60
72024;BME280;59889;50.700;5.440;2023-10-08T04:22:45;100890.23;;;25.07;33.65
72024;BME280;59889;50.700;5.440;2023-10-08T04:25:11;100894.34;;;25.10;33.61
72024;BME280;59889;50.700;5.440;2023-10-08T04:27:37;100905.29;;;25.09;33.64
72024;BME280;59889;50.700;5.440;2023-10-08T04:30:03;100909.21;;;25.28;33.69
72024;BME280;59889;50.700;5.440;2023-10-08T04:32:29;100908.15;;;24.85;33.63
72024;BME280;59889;50.700;5.440;2023-10-08T04:34:54;100909.63;;;25.35;33.60
72024;BME280;59889;50.700;5.440;2023-10-08T04:37:20;100909.47;;;24.99;33.74
72024;BME280;59889;50.700;5.440;2023-10-08T04:39:46;100909.19;;;25.08;33.62
72024;BME280;59889;50.700;5.440;2023-10-08T04:42:12;100908.96;;;25.05;33.67
72024;BME280;59889;50.700;5.440;2023-10-08T04:44:38;100907.65;;;25.03;33.71
72024;BME280;59889;50.700;5.440;2023-10-08T04:47:04;100912.59;;;25.14;33.57
72024;BME280;59889;50.700;5.440;2023-10-08T04:49:30;100916.76;;;25.10;33.60
72024;BME280;59889;50.700;5.440;2023-10-08T04:51:58;100917.89;;;25.05;33.70
72024;BME280;59889;50.700;5.440;2023-10-08T04:54:21;100919.80;;;25.10;33.61
72024;BME280;59889;50.700;5.440;2023-10-08T04:56:47;100920.25;;;25.07;33.66
72024;BME280;59889;50.700;5.440;2023-10-08T04:59:13;100922.95;;;25.06;33.67
72024;BME280;59889;50.700;5.440;2023-10-08T05:01:39;100925.50;;;25.09;33.64
72024;BME280;59889;50.700;5.440;2023-10-08T05:04:05;100927.28;;;25.04;33.70
72024;BME280;59889;50.700;5.440;2023-10-08T05:06:32;100929.85;;;25.09;33.62
72024;BME280;59889;50.700;5.440;2023-10-08T05:08:56;100925.25;;;25.02;33.71
72024;BME280;59889;50.700;5.440;2023-10-08T05:11:22;100924.13;;;25.10;33.62
72024;BME280;59889;50.700;5.440;2023-10-08T05:13:48;100925.14;;;25.24;33.73
72024;BME280;59889;50.700;5.440;2023-10-08T05:16:14;100923.54;;;24.99;33.74
72024;BME280;59889;50.700;5.440;2023-10-08T05:18:40;100923.75;;;24.87;33.88
72024;BME280;59889;50.700;5.440;2023-10-08T05:21:06;100928.69;;;25.27;33.70
72024;BME280;59889;50.700;5.440;2023-10-08T05:23:31;100929.10;;;24.84;33.64
72024;BME280;59889;50.700;5.440;2023-10-08T05:25:58;100930.22;;;24.94;33.89
72024;BME280;59889;50.700;5.440;2023-10-08T05:28:23;100933.78;;;24.80;34.67
72024;BME280;59889;50.700;5.440;2023-10-08T05:30:49;100933.18;;;24.90;34.83
72024;BME280;59889;50.700;5.440;2023-10-08T05:33:15;100927.72;;;24.73;34.59
72024;BME280;59889;50.700;5.440;2023-10-08T05:35:42;100923.27;;;24.67;34.58
72024;BME280;59889;50.700;5.440;2023-10-08T05:38:07;100916.34;;;24.70;34.41
72024;BME280;59889;50.700;5.440;2023-10-08T05:40:32;100912.68;;;24.54;34.51
72024;BME280;59889;50.700;5.440;2023-10-08T05:42:58;100910.70;;;24.69;34.24
72024;BME280;59889;50.700;5.440;2023-10-08T05:45:24;100917.05;;;24.75;34.39
72024;BME280;59889;50.700;5.440;2023-10-08T05:47:50;100923.34;;;24.45;34.34
72024;BME280;59889;50.700;5.440;2023-10-08T05:50:16;100928.82;;;24.51;34.22
72024;BME280;59889;50.700;5.440;2023-10-08T05:52:42;100925.18;;;24.73;34.15
72024;BME280;59889;50.700;5.440;2023-10-08T05:55:08;100926.86;;;24.65;34.16
72024;BME280;59889;50.700;5.440;2023-10-08T05:57:33;100922.13;;;24.46;34.03
72024;BME280;59889;50.700;5.440;2023-10-08T05:59:59;100923.54;;;24.76;33.88
72024;BME280;59889;50.700;5.440;2023-10-08T06:02:26;100919.87;;;24.78;33.81
72024;BME280;59889;50.700;5.440;2023-10-08T06:04:51;100918.92;;;24.79;33.71
72024;BME280;59889;50.700;5.440;2023-10-08T06:07:17;100917.40;;;24.89;33.82
72024;BME280;59889;50.700;5.440;2023-10-08T06:09:43;100920.50;;;24.80;33.90
72024;BME280;59889;50.700;5.440;2023-10-08T06:12:08;100919.47;;;24.70;33.64
72024;BME280;59889;50.700;5.440;2023-10-08T06:14:35;100922.97;;;24.69;33.63
72024;BME280;59889;50.700;5.440;2023-10-08T06:17:00;100927.48;;;24.98;33.47
72024;BME280;59889;50.700;5.440;2023-10-08T06:19:26;100933.03;;;24.56;33.36
72024;BME280;59889;50.700;5.440;2023-10-08T06:21:52;100930.24;;;24.57;33.36
72024;BME280;59889;50.700;5.440;2023-10-08T06:24:18;100933.67;;;25.19;33.22
72024;BME280;59889;50.700;5.440;2023-10-08T06:26:44;100932.85;;;24.57;33.39
72024;BME280;59889;50.700;5.440;2023-10-08T06:29:10;100935.25;;;24.55;33.35
72024;BME280;59889;50.700;5.440;2023-10-08T06:31:35;100937.83;;;24.68;33.39
72024;BME280;59889;50.700;5.440;2023-10-08T06:34:01;100946.03;;;24.87;33.10
72024;BME280;59889;50.700;5.440;2023-10-08T06:36:27;100950.44;;;24.67;32.96
72024;BME280;59889;50.700;5.440;2023-10-08T06:38:52;100951.51;;;24.56;32.84
72024;BME280;59889;50.700;5.440;2023-10-08T06:41:18;100945.75;;;24.96;32.88
72024;BME280;59889;50.700;5.440;2023-10-08T06:43:45;100948.53;;;25.02;32.74
72024;BME280;59889;50.700;5.440;2023-10-08T06:46:10;100949.56;;;24.88;32.80
72024;BME280;59889;50.700;5.440;2023-10-08T06:48:36;100951.16;;;24.67;32.79
72024;BME280;59889;50.700;5.440;2023-10-08T06:51:01;100953.68;;;24.91;32.84
72024;BME280;59889;50.700;5.440;2023-10-08T06:53:27;100958.90;;;24.84;32.70
72024;BME280;59889;50.700;5.440;2023-10-08T06:55:53;100960.88;;;24.94;32.68
72024;BME280;59889;50.700;5.440;2023-10-08T06:58:19;100964.45;;;25.04;32.58
72024;BME280;59889;50.700;5.440;2023-10-08T07:00:45;100970.42;;;24.93;32.71
72024;BME280;59889;50.700;5.440;2023-10-08T07:03:11;100974.21;;;25.24;32.32
72024;BME280;59889;50.700;5.440;2023-10-08T07:05:36;100975.83;;;25.37;32.12
72024;BME280;59889;50.700;5.440;2023-10-08T07:08:02;100981.30;;;25.41;32.00
72024;BME280;59889;50.700;5.440;2023-10-08T07:10:27;100988.02;;;25.40;31.54
72024;BME280;59889;50.700;5.440;2023-10-08T07:12:53;100984.01;;;25.63;31.49
72024;BME280;59889;50.700;5.440;2023-10-08T07:15:19;100984.37;;;25.52;31.60
72024;BME280;59889;50.700;5.440;2023-10-08T07:17:45;100986.41;;;25.85;31.43
72024;BME280;59889;50.700;5.440;2023-10-08T07:20:11;100988.84;;;25.38;31.41
72024;BME280;59889;50.700;5.440;2023-10-08T07:22:37;100986.70;;;25.79;31.19
72024;BME280;59889;50.700;5.440;2023-10-08T07:25:03;100983.45;;;25.75;31.21
72024;BME280;59889;50.700;5.440;2023-10-08T07:27:28;100981.24;;;25.38;31.33
72024;BME280;59889;50.700;5.440;2023-10-08T07:29:54;100984.87;;;25.59;31.67
72024;BME280;59889;50.700;5.440;2023-10-08T07:32:20;100984.50;;;25.35;32.00
72024;BME280;59889;50.700;5.440;2023-10-08T07:34:46;100983.66;;;25.24;32.07
72024;BME280;59889;50.700;5.440;2023-10-08T07:37:11;100984.63;;;25.15;32.26
72024;BME280;59889;50.700;5.440;2023-10-08T07:39:37;100985.81;;;25.20;32.14
72024;BME280;59889;50.700;5.440;2023-10-08T07:42:05;100989.74;;;24.94;32.24
72024;BME280;59889;50.700;5.440;2023-10-08T07:44:29;100987.03;;;24.53;32.47
72024;BME280;59889;50.700;5.440;2023-10-08T07:46:55;100992.38;;;24.20;33.33
72024;BME280;59889;50.700;5.440;2023-10-08T07:49:21;100995.51;;;25.05;32.33
72024;BME280;59889;50.700;5.440;2023-10-08T07:51:47;100999.41;;;24.88;32.48
72024;BME280;59889;50.700;5.440;2023-10-08T07:54:12;100998.92;;;24.81;32.83
72024;BME280;59889;50.700;5.440;2023-10-08T07:56:38;101001.69;;;24.95;32.81
72024;BME280;59889;50.700;5.440;2023-10-08T07:59:04;100995.27;;;24.79;32.91
72024;BME280;59889;50.700;5.440;2023-10-08T08:01:30;100995.14;;;24.74;32.99
72024;BME280;59889;50.700;5.440;2023-10-08T08:03:56;100993.58;;;24.98;32.95
72024;BME280;59889;50.700;5.440;2023-10-08T08:06:21;100997.14;;;24.89;32.77
72024;BME280;59889;50.700;5.440;2023-10-08T08:08:47;100999.78;;;25.14;32.59
72024;BME280;59889;50.700;5.440;2023-10-08T08:11:12;101003.03;;;24.80;33.12
72024;BME280;59889;50.700;5.440;2023-10-08T08:13:38;100999.40;;;24.82;32.75
72024;BME280;59889;50.700;5.440;2023-10-08T08:16:04;101005.43;;;25.12;32.68
72024;BME280;59889;50.700;5.440;2023-10-08T08:18:29;101007.75;;;24.55;32.73
72024;BME280;59889;50.700;5.440;2023-10-08T08:20:55;101007.42;;;24.44;33.05
72024;BME280;59889;50.700;5.440;2023-10-08T08:23:20;101010.39;;;24.34;33.30
72024;BME280;59889;50.700;5.440;2023-10-08T08:25:46;101013.86;;;24.50;33.12
72024;BME280;59889;50.700;5.440;2023-10-08T08:28:11;101014.67;;;24.66;33.10
72024;BME280;59889;50.700;5.440;2023-10-08T08:30:36;101010.71;;;24.73;33.01
72024;BME280;59889;50.700;5.440;2023-10-08T08:33:01;101005.66;;;24.44;34.05
72024;BME280;59889;50.700;5.440;2023-10-08T08:35:27;101001.09;;;24.03;34.42
72024;BME280;59889;50.700;5.440;2023-10-08T08:37:53;100995.69;;;24.09;34.08
72024;BME280;59889;50.700;5.440;2023-10-08T08:40:19;100997.94;;;24.61;34.14
72024;BME280;59889;50.700;5.440;2023-10-08T08:42:44;100992.88;;;23.99;34.22
72024;BME280;59889;50.700;5.440;2023-10-08T08:45:11;100993.14;;;24.20;34.22
72024;BME280;59889;50.700;5.440;2023-10-08T08:47:35;100993.37;;;24.11;34.72
72024;BME280;59889;50.700;5.440;2023-10-08T08:50:00;100990.23;;;24.68;33.58
72024;BME280;59889;50.700;5.440;2023-10-08T08:52:25;100988.67;;;24.74;33.71
72024;BME280;59889;50.700;5.440;2023-10-08T08:54:50;100981.10;;;25.20;33.60
72024;BME280;59889;50.700;5.440;2023-10-08T08:57:15;100981.92;;;25.07;33.66
72024;BME280;59889;50.700;5.440;2023-10-08T08:59:46;100984.84;;;25.03;33.80
72024;BME280;59889;50.700;5.440;2023-10-08T09:02:07;100985.94;;;24.96;33.70
72024;BME280;59889;50.700;5.440;2023-10-08T09:04:30;100988.04;;;25.01;33.95
72024;BME280;59889;50.700;5.440;2023-10-08T09:06:56;100984.73;;;25.16;33.54
72024;BME280;59889;50.700;5.440;2023-10-08T09:09:21;100982.23;;;25.26;33.52
72024;BME280;59889;50.700;5.440;2023-10-08T09:11:45;100983.35;;;25.34;32.87
72024;BME280;59889;50.700;5.440;2023-10-08T09:14:10;100987.37;;;25.35;33.14
72024;BME280;59889;50.700;5.440;2023-10-08T09:16:36;100986.00;;;25.44;32.51
72024;BME280;59889;50.700;5.440;2023-10-08T09:19:01;100983.95;;;25.39;32.77
72024;BME280;59889;50.700;5.440;2023-10-08T09:21:26;100984.04;;;25.07;33.17
72024;BME280;59889;50.700;5.440;2023-10-08T09:23:52;100987.67;;;25.17;32.91
72024;BME280;59889;50.700;5.440;2023-10-08T09:26:17;100990.23;;;25.11;32.91
72024;BME280;59889;50.700;5.440;2023-10-08T09:28:45;100990.64;;;25.04;32.96
72024;BME280;59889;50.700;5.440;2023-10-08T09:31:10;100990.76;;;25.14;33.20
72024;BME280;59889;50.700;5.440;2023-10-08T09:33:32;100988.84;;;24.97;33.12
72024;BME280;59889;50.700;5.440;2023-10-08T09:35:58;100993.71;;;24.98;33.11
72024;BME280;59889;50.700;5.440;2023-10-08T09:38:22;100995.01;;;24.93;33.29
72024;BME280;59889;50.700;5.440;2023-10-08T09:40:48;100995.27;;;25.04;33.17
72024;BME280;59889;50.700;5.440;2023-10-08T09:43:13;100996.09;;;25.09;33.11
72024;BME280;59889;50.700;5.440;2023-10-08T09:45:38;100995.51;;;25.13;33.07
72024;BME280;59889;50.700;5.440;2023-10-08T09:48:07;100998.19;;;25.08;33.14
72024;BME280;59889;50.700;5.440;2023-10-08T09:50:30;100995.93;;;24.98;33.20
72024;BME280;59889;50.700;5.440;2023-10-08T09:53:00;100995.24;;;25.28;33.18
72024;BME280;59889;50.700;5.440;2023-10-08T09:55:18;100998.31;;;25.10;33.15
72024;BME280;59889;50.700;5.440;2023-10-08T09:57:44;100998.86;;;24.96;33.42
72024;BME280;59889;50.700;5.440;2023-10-08T10:00:10;100995.43;;;25.17;33.26
72024;BME280;59889;50.700;5.440;2023-10-08T10:02:35;100995.23;;;25.06;33.31
72024;BME280;59889;50.700;5.440;2023-10-08T10:05:00;100996.44;;;25.04;33.38
72024;BME280;59889;50.700;5.440;2023-10-08T10:07:25;100994.55;;;25.21;33.46
72024;BME280;59889;50.700;5.440;2023-10-08T10:09:51;100996.60;;;25.18;33.53
72024;BME280;59889;50.700;5.440;2023-10-08T10:12:18;101000.20;;;24.89;33.57
72024;BME280;59889;50.700;5.440;2023-10-08T10:14:41;101003.99;;;24.80;33.77
72024;BME280;59889;50.700;5.440;2023-10-08T10:17:08;101006.06;;;25.04;33.81
72024;BME280;59889;50.700;5.440;2023-10-08T10:19:30;101012.35;;;25.05;33.47
72024;BME280;59889;50.700;5.440;2023-10-08T10:21:55;101012.43;;;25.05;33.55
72024;BME280;59889;50.700;5.440;2023-10-08T10:24:22;101012.10;;;24.93;33.75
72024;BME280;59889;50.700;5.440;2023-10-08T10:26:48;101013.80;;;25.03;33.64
72024;BME280;59889;50.700;5.440;2023-10-08T10:29:20;101017.78;;;24.97;33.70
72024;BME280;59889;50.700;5.440;2023-10-08T10:31:37;101020.03;;;25.11;33.54
72024;BME280;59889;50.700;5.440;2023-10-08T10:34:04;101019.44;;;25.13;33.49
72024;BME280;59889;50.700;5.440;2023-10-08T10:36:26;101021.94;;;25.04;33.69
72024;BME280;59889;50.700;5.440;2023-10-08T10:38:51;101024.01;;;25.03;33.65
72024;BME280;59889;50.700;5.440;2023-10-08T10:41:17;101020.47;;;25.09;33.65
72024;BME280;59889;50.700;5.440;2023-10-08T10:43:43;101018.83;;;25.11;33.57
72024;BME280;59889;50.700;5.440;2023-10-08T10:46:07;101016.51;;;25.13;33.53
72024;BME280;59889;50.700;5.440;2023-10-08T10:48:32;101014.34;;;25.07;33.61
72024;BME280;59889;50.700;5.440;2023-10-08T10:50:59;101016.96;;;25.09;33.60
72024;BME280;59889;50.700;5.440;2023-10-08T10:53:23;101018.25;;;25.14;33.60
72024;BME280;59889;50.700;5.440;2023-10-08T10:55:48;101018.46;;;25.08;33.67
72024;BME280;59889;50.700;5.440;2023-10-08T10:58:13;101015.36;;;25.12;33.76
72024;BME280;59889;50.700;5.440;2023-10-08T11:00:42;101013.04;;;25.13;33.83
72024;BME280;59889;50.700;5.440;2023-10-08T11:03:04;101007.92;;;25.10;33.79
72024;BME280;59889;50.700;5.440;2023-10-08T11:05:28;101002.18;;;24.91;33.77
72024;BME280;59889;50.700;5.440;2023-10-08T11:07:53;100996.72;;;25.11;33.90
72024;BME280;59889;50.700;5.440;2023-10-08T11:10:18;100997.77;;;25.15;33.82
72024;BME280;59889;50.700;5.440;2023-10-08T11:12:46;101003.05;;;25.15;33.81
72024;BME280;59889;50.700;5.440;2023-10-08T11:15:10;101004.12;;;25.10;33.90
72024;BME280;59889;50.700;5.440;2023-10-08T11:17:35;101001.08;;;25.43;33.79
72024;BME280;59889;50.700;5.440;2023-10-08T11:20:01;100997.55;;;25.18;33.82
72024;BME280;59889;50.700;5.440;2023-10-08T11:24:51;100991.70;;;25.35;33.95
72024;BME280;59889;50.700;5.440;2023-10-08T11:27:17;100994.47;;;25.00;34.09
72024;BME280;59889;50.700;5.440;2023-10-08T11:29:42;100990.15;;;25.34;33.97
72024;BME280;59889;50.700;5.440;2023-10-08T11:32:06;100987.35;;;25.01;34.11
72024;BME280;59889;50.700;5.440;2023-10-08T11:34:31;100986.35;;;25.13;33.97
72024;BME280;59889;50.700;5.440;2023-10-08T11:36:56;100989.88;;;25.14;33.96
72024;BME280;59889;50.700;5.440;2023-10-08T11:39:21;100986.97;;;24.93;33.95
72024;BME280;59889;50.700;5.440;2023-10-08T11:41:55;100980.38;;;25.11;34.13
72024;BME280;59889;50.700;5.440;2023-10-08T11:44:12;100972.07;;;25.20;34.00
72024;BME280;59889;50.700;5.440;2023-10-08T11:46:36;100972.83;;;25.19;33.97
72024;BME280;59889;50.700;5.440;2023-10-08T11:49:01;100971.01;;;25.11;34.07
72024;BME280;59889;50.700;5.440;2023-10-08T11:51:27;100969.54;;;24.99;33.97
72024;BME280;59889;50.700;5.440;2023-10-08T11:53:52;100966.76;;;25.16;34.06
72024;BME280;59889;50.700;5.440;2023-10-08T11:56:17;100967.32;;;25.08;34.20
72024;BME280;59889;50.700;5.440;2023-10-08T11:58:42;100968.58;;;24.83;34.23
72024;BME280;59889;50.700;5.440;2023-10-08T12:01:07;100966.93;;;25.14;34.17
72024;BME280;59889;50.700;5.440;2023-10-08T12:03:32;100967.20;;;25.22;34.13
72024;BME280;59889;50.700;5.440;2023-10-08T12:05:58;100964.77;;;25.27;34.17
72024;BME280;59889;50.700;5.440;2023-10-08T12:08:22;100961.29;;;25.29;34.15
72024;BME280;59889;50.700;5.440;2023-10-08T12:10:48;100951.40;;;25.18;34.44
72024;BME280;59889;50.700;5.440;2023-10-08T12:13:12;100950.99;;;25.31;34.16
72024;BME280;59889;50.700;5.440;2023-10-08T12:15:38;100949.37;;;25.35;34.06
72024;BME280;59889;50.700;5.440;2023-10-08T12:18:03;100944.83;;;25.56;34.13
72024;BME280;59889;50.700;5.440;2023-10-08T12:20:27;100944.86;;;24.87;34.16
72024;BME280;59889;50.700;5.440;2023-10-08T12:22:52;100947.52;;;25.54;34.25
72024;BME280;59889;50.700;5.440;2023-10-08T12:25:17;100943.36;;;25.26;34.34
72024;BME280;59889;50.700;5.440;2023-10-08T12:27:42;100941.72;;;25.33;34.37
72024;BME280;59889;50.700;5.440;2023-10-08T12:30:09;100941.22;;;25.34;34.31
72024;BME280;59889;50.700;5.440;2023-10-08T12:32:33;100937.79;;;25.29;34.37
72024;BME280;59889;50.700;5.440;2023-10-08T12:34:58;100936.47;;;25.31;34.34
72024;BME280;59889;50.700;5.440;2023-10-08T12:37:23;100935.26;;;25.33;34.40
72024;BME280;59889;50.700;5.440;2023-10-08T12:39:48;100938.95;;;25.38;34.58
72024;BME280;59889;50.700;5.440;2023-10-08T12:42:13;100940.79;;;25.34;34.43